Time;durP1;ratioP1;P1;durP2;ratioP2;P2;SDS_P1;SDS_P2;PMS_P1;PMS_P2;Temp;Humidity;BMP_temperature;BMP_pressure;BME280_temperature;BME280_humidity;BME280_pressure;Samples;Min_cycle;Max_cycle;Signal;HPM_P1;HPM_P2
2021/11/07 00:00:35;;;;;;;8.25;3.40;;;;;;;;;;5042103;28;20092;-56
2021/11/07 00:03:12;;;;;;;7.57;3.75;;;;;;;;;;5051137;28;20039;-58
2021/11/07 00:05:42;;;;;;;7.35;3.60;;;;;;;;;;5048693;28;20040;-55
2021/11/07 00:08:26;;;;;;;7.72;3.50;;;;;;;;;;5053285;28;21753;-56
2021/11/07 00:10:57;;;;;;;9.25;3.78;;;;;;;;;;5030761;28;20049;-54
2021/11/07 00:13:26;;;;;;;6.88;3.45;;;;;;;;;;5043462;28;20093;-57
2021/11/07 00:15:53;;;;;;;7.72;3.78;;;;;;;;;;5038503;28;20037;-57
2021/11/07 00:18:22;;;;;;;7.65;3.58;;;;;;;;;;5044506;28;20041;-57
2021/11/07 00:20:53;;;;;;;6.75;3.20;;;;;;;;;;5038233;28;20095;-55
2021/11/07 00:23:33;;;;;;;5.82;3.20;;;;;;;;;;5042576;28;20049;-55
2021/11/07 00:26:06;;;;;;;5.35;3.00;;;;;;;;;;5038917;28;20041;-57
2021/11/07 00:28:37;;;;;;;6.55;3.13;;;;;;;;;;5043156;28;20061;-56
2021/11/07 00:31:14;;;;;;;6.22;3.40;;;;;;;;;;5038955;28;20073;-56
2021/11/07 00:33:57;;;;;;;5.60;3.28;;;;;;;;;;5042082;28;20437;-57
2021/11/07 00:36:28;;;;;;;5.70;3.25;;;;;;;;;;5038190;28;20044;-52
2021/11/07 00:38:59;;;;;;;10.05;4.05;;;;;;;;;;5041729;28;20053;-57
2021/11/07 00:41:33;;;;;;;8.68;3.50;;;;;;;;;;5038111;28;20044;-57
2021/11/07 00:44:04;;;;;;;7.47;3.70;;;;;;;;;;5043897;28;20386;-58
2021/11/07 00:46:35;;;;;;;6.53;3.33;;;;;;;;;;5037308;28;20052;-57
2021/11/07 00:49:05;;;;;;;7.60;3.58;;;;;;;;;;5041982;28;20126;-56
2021/11/07 00:51:41;;;;;;;7.03;3.63;;;;;;;;;;5038566;28;20029;-56
2021/11/07 00:54:14;;;;;;;5.72;3.20;;;;;;;;;;5042836;28;20061;-58
2021/11/07 00:56:44;;;;;;;7.28;3.88;;;;;;;;;;5040333;28;20053;-55
2021/11/07 01:02:00;;;;;;;6.60;3.65;;;;;;;;;;5039813;28;20041;-56
2021/11/07 01:04:29;;;;;;;6.38;3.60;;;;;;;;;;5042802;28;20037;-54
2021/11/07 01:06:55;;;;;;;7.22;4.15;;;;;;;;;;5038367;28;20041;-55
2021/11/07 01:09:22;;;;;;;6.40;3.35;;;;;;;;;;5044751;28;20057;-58
2021/11/07 01:11:49;;;;;;;10.52;4.45;;;;;;;;;;5035878;28;20049;-53
2021/11/07 01:14:17;;;;;;;8.07;3.83;;;;;;;;;;5030340;28;20033;-57
2021/11/07 01:16:43;;;;;;;6.77;3.90;;;;;;;;;;5045251;28;20041;-57
2021/11/07 01:19:10;;;;;;;8.15;4.50;;;;;;;;;;5039640;28;20490;-57
2021/11/07 01:21:42;;;;;;;6.40;3.97;;;;;;;;;;5035519;28;20397;-58
2021/11/07 01:24:13;;;;;;;9.95;4.28;;;;;;;;;;5033818;28;20460;-57
2021/11/07 01:26:41;;;;;;;6.28;3.65;;;;;;;;;;5042416;28;20033;-57
2021/11/07 01:29:11;;;;;;;12.30;4.75;;;;;;;;;;5038758;28;20057;-58
2021/11/07 01:31:42;;;;;;;10.30;5.35;;;;;;;;;;5040905;28;20049;-57
2021/11/07 01:34:15;;;;;;;9.45;5.05;;;;;;;;;;5024932;28;20100;-53
2021/11/07 01:36:46;;;;;;;8.90;4.63;;;;;;;;;;5037170;28;20048;-56
2021/11/07 01:39:17;;;;;;;10.15;4.78;;;;;;;;;;5038805;28;20047;-55
2021/11/07 01:41:59;;;;;;;8.43;4.05;;;;;;;;;;5041456;28;20057;-56
2021/11/07 01:44:35;;;;;;;11.23;4.35;;;;;;;;;;5042546;28;20090;-55
2021/11/07 01:47:02;;;;;;;8.65;4.90;;;;;;;;;;5042477;28;20050;-56
2021/11/07 01:49:35;;;;;;;13.87;5.03;;;;;;;;;;5039655;28;20052;-58
2021/11/07 01:52:04;;;;;;;9.93;5.03;;;;;;;;;;5062922;28;20266;-56
2021/11/07 01:54:34;;;;;;;9.60;4.05;;;;;;;;;;5041324;28;20032;-56
2021/11/07 01:57:01;;;;;;;11.20;5.07;;;;;;;;;;5041389;28;20056;-57
2021/11/07 01:59:27;;;;;;;10.82;4.88;;;;;;;;;;5038047;28;20041;-58
2021/11/07 02:01:57;;;;;;;11.45;4.80;;;;;;;;;;5030733;28;20036;-58
2021/11/07 02:04:25;;;;;;;12.30;4.68;;;;;;;;;;5060024;28;20475;-58
2021/11/07 02:06:51;;;;;;;8.50;4.40;;;;;;;;;;5045799;28;20275;-57
2021/11/07 02:09:17;;;;;;;8.65;4.47;;;;;;;;;;5036049;28;20103;-56
2021/11/07 02:11:46;;;;;;;9.38;4.55;;;;;;;;;;5033252;28;20045;-56
2021/11/07 02:14:12;;;;;;;;;;;;;;;;;;5062990;28;20037;-55
2021/11/07 02:16:40;;;;;;;9.13;4.57;;;;;;;;;;5041129;28;19920;-55
2021/11/07 02:19:06;;;;;;;13.07;4.22;;;;;;;;;;5045846;28;20122;-57
2021/11/07 02:21:34;;;;;;;9.70;5.30;;;;;;;;;;5040430;28;20048;-57
2021/11/07 02:24:01;;;;;;;20.45;5.55;;;;;;;;;;5044839;28;20053;-58
2021/11/07 02:26:28;;;;;;;11.35;5.13;;;;;;;;;;5041435;28;20052;-56
2021/11/07 02:28:55;;;;;;;15.63;4.90;;;;;;;;;;5045654;28;20068;-57
2021/11/07 02:31:22;;;;;;;11.50;5.10;;;;;;;;;;5042299;28;20041;-57
2021/11/07 02:33:49;;;;;;;11.45;5.75;;;;;;;;;;5044337;28;20041;-56
2021/11/07 02:36:16;;;;;;;15.80;6.57;;;;;;;;;;5060316;28;20049;-56
2021/11/07 02:38:45;;;;;;;19.15;6.18;;;;;;;;;;5045950;28;20037;-58
2021/11/07 02:41:12;;;;;;;15.10;5.72;;;;;;;;;;5042011;28;20044;-58
2021/11/07 02:43:39;;;;;;;12.20;5.22;;;;;;;;;;5045494;28;20047;-58
2021/11/07 02:46:06;;;;;;;12.93;6.13;;;;;;;;;;5041402;28;20482;-60
2021/11/07 02:48:32;;;;;;;13.77;5.82;;;;;;;;;;5044973;28;20091;-59
2021/11/07 02:50:59;;;;;;;20.05;6.22;;;;;;;;;;5042964;28;20182;-57
2021/11/07 02:53:27;;;;;;;17.45;6.70;;;;;;;;;;5045429;28;20519;-57
2021/11/07 02:55:54;;;;;;;15.45;5.93;;;;;;;;;;5044446;28;20037;-57
2021/11/07 02:58:21;;;;;;;16.40;6.25;;;;;;;;;;5021552;28;20052;-54
2021/11/07 03:03:21;;;;;;;15.75;5.70;;;;;;;;;;5064270;22;20029;-58
2021/11/07 03:05:47;;;;;;;13.77;6.05;;;;;;;;;;5046673;28;20045;-59
2021/11/07 03:08:14;;;;;;;10.45;4.90;;;;;;;;;;5038447;28;20106;-55
2021/11/07 03:10:40;;;;;;;12.43;5.20;;;;;;;;;;5047880;28;20067;-57
2021/11/07 03:13:10;;;;;;;16.00;5.30;;;;;;;;;;5042870;28;20137;-59
2021/11/07 03:15:39;;;;;;;17.67;5.53;;;;;;;;;;5064218;28;20036;-56
2021/11/07 03:18:06;;;;;;;10.07;4.32;;;;;;;;;;5060375;28;20092;-56
2021/11/07 03:20:32;;;;;;;10.23;5.13;;;;;;;;;;5063558;28;20052;-55
2021/11/07 03:23:00;;;;;;;12.75;4.90;;;;;;;;;;5047841;28;20083;-53
2021/11/07 03:25:27;;;;;;;14.27;4.50;;;;;;;;;;5031936;28;20057;-56
2021/11/07 03:27:54;;;;;;;15.20;5.07;;;;;;;;;;5031613;28;20061;-57
2021/11/07 03:30:29;;;;;;;13.90;5.18;;;;;;;;;;5033157;28;20069;-57
2021/11/07 03:33:08;;;;;;;12.70;4.40;;;;;;;;;;5031423;28;20052;-55
2021/11/07 03:35:35;;;;;;;15.00;4.68;;;;;;;;;;5034650;28;20132;-57
2021/11/07 03:38:02;;;;;;;12.82;4.43;;;;;;;;;;5035831;28;20041;-57
2021/11/07 03:40:28;;;;;;;10.48;4.47;;;;;;;;;;5026146;28;20060;-57
2021/11/07 03:42:56;;;;;;;12.88;4.82;;;;;;;;;;5077823;28;20068;-57
2021/11/07 03:45:24;;;;;;;15.32;4.38;;;;;;;;;;5043206;28;20044;-54
2021/11/07 03:47:50;;;;;;;16.15;5.20;;;;;;;;;;5057356;28;20041;-56
2021/11/07 03:50:20;;;;;;;17.00;5.70;;;;;;;;;;5042184;28;20102;-57
2021/11/07 03:52:47;;;;;;;17.67;5.97;;;;;;;;;;5028941;28;20049;-57
2021/11/07 03:55:13;;;;;;;13.23;3.65;;;;;;;;;;5043996;28;20084;-58
2021/11/07 03:57:40;;;;;;;9.60;2.75;;;;;;;;;;5040576;28;20056;-57
2021/11/07 04:00:08;;;;;;;10.50;2.10;;;;;;;;;;5044138;28;20061;-58
2021/11/07 04:02:36;;;;;;;13.17;1.63;;;;;;;;;;5040247;28;20033;-57
2021/11/07 04:05:02;;;;;;;14.88;2.20;;;;;;;;;;5035921;28;20652;-58
2021/11/07 04:07:28;;;;;;;19.52;2.00;;;;;;;;;;5041930;28;20045;-56
2021/11/07 04:09:55;;;;;;;15.27;2.53;;;;;;;;;;5037212;28;20053;-58
2021/11/07 04:12:22;;;;;;;14.15;2.08;;;;;;;;;;5039444;28;20041;-57
2021/11/07 04:14:48;;;;;;;21.98;3.30;;;;;;;;;;5036927;28;20037;-57
2021/11/07 04:17:15;;;;;;;11.75;2.03;;;;;;;;;;5040460;28;20061;-58
2021/11/07 04:19:43;;;;;;;15.32;2.38;;;;;;;;;;5037616;28;20045;-58
2021/11/07 04:22:13;;;;;;;16.57;2.13;;;;;;;;;;5039929;28;20097;-58
2021/11/07 04:24:40;;;;;;;14.35;2.60;;;;;;;;;;5040048;28;20033;-58
2021/11/07 04:27:06;;;;;;;14.10;2.40;;;;;;;;;;5040667;28;20049;-59
2021/11/07 04:29:33;;;;;;;14.80;2.30;;;;;;;;;;5041430;28;20055;-58
2021/11/07 04:32:00;;;;;;;16.13;2.30;;;;;;;;;;5038651;28;20041;-57
2021/11/07 04:34:26;;;;;;;17.35;2.13;;;;;;;;;;5040743;28;20033;-59
2021/11/07 04:36:54;;;;;;;15.20;2.22;;;;;;;;;;5036996;28;20146;-60
2021/11/07 04:39:23;;;;;;;18.17;2.13;;;;;;;;;;5040713;28;20494;-59
2021/11/07 04:41:49;;;;;;;14.40;2.35;;;;;;;;;;5024178;28;20282;-58
2021/11/07 04:44:16;;;;;;;18.38;2.70;;;;;;;;;;5020063;28;20103;-59
2021/11/07 04:46:42;;;;;;;8.07;1.85;;;;;;;;;;5019517;28;20033;-58
2021/11/07 04:49:09;;;;;;;18.02;2.33;;;;;;;;;;5022536;28;20131;-58
2021/11/07 04:51:36;;;;;;;14.88;2.55;;;;;;;;;;5021257;28;20034;-58
2021/11/07 04:54:03;;;;;;;12.05;2.10;;;;;;;;;;5023674;28;20053;-57
2021/11/07 04:56:30;;;;;;;14.43;2.17;;;;;;;;;;5020761;28;20037;-59
2021/11/07 04:58:57;;;;;;;9.82;1.90;;;;;;;;;;5024267;28;20365;-58
2021/11/07 05:01:23;;;;;;;13.02;2.38;;;;;;;;;;5020703;28;20040;-58
2021/11/07 05:03:50;;;;;;;11.32;1.92;;;;;;;;;;5030533;28;20049;-58
2021/11/07 05:06:16;;;;;;;21.70;1.92;;;;;;;;;;5024013;28;20042;-58
2021/11/07 05:08:43;;;;;;;12.25;2.00;;;;;;;;;;5047610;28;20183;-58
2021/11/07 05:11:10;;;;;;;14.32;1.95;;;;;;;;;;5043965;28;20108;-57
2021/11/07 05:13:38;;;;;;;18.43;2.03;;;;;;;;;;5058914;28;20045;-57
2021/11/07 05:16:05;;;;;;;11.43;1.85;;;;;;;;;;5062893;28;20041;-57
2021/11/07 05:18:31;;;;;;;14.65;2.20;;;;;;;;;;5056512;28;20037;-58
2021/11/07 05:20:58;;;;;;;16.40;2.38;;;;;;;;;;5041505;28;20064;-57
2021/11/07 05:23:25;;;;;;;13.18;2.25;;;;;;;;;;5051701;28;20052;-58
2021/11/07 05:25:52;;;;;;;15.90;1.75;;;;;;;;;;5063781;28;20055;-57
2021/11/07 05:28:20;;;;;;;16.25;1.92;;;;;;;;;;5056393;28;20299;-58
2021/11/07 05:30:47;;;;;;;12.90;1.67;;;;;;;;;;5042541;28;20049;-58
2021/11/07 05:33:14;;;;;;;9.43;2.00;;;;;;;;;;5047060;28;20088;-58
2021/11/07 05:35:40;;;;;;;20.63;2.58;;;;;;;;;;5062799;28;20045;-57
2021/11/07 05:38:07;;;;;;;15.27;1.80;;;;;;;;;;5059531;28;20029;-58
2021/11/07 05:40:33;;;;;;;11.65;1.88;;;;;;;;;;5064076;28;20068;-59
2021/11/07 05:43:00;;;;;;;14.90;1.70;;;;;;;;;;5059474;28;20052;-58
2021/11/07 05:45:28;;;;;;;12.77;1.58;;;;;;;;;;5062239;28;20045;-59
2021/11/07 05:47:54;;;;;;;14.80;1.87;;;;;;;;;;5060942;28;20040;-57
2021/11/07 05:50:21;;;;;;;14.73;1.73;;;;;;;;;;5058605;28;20284;-57
2021/11/07 05:52:49;;;;;;;10.68;1.80;;;;;;;;;;5043487;28;20037;-59
2021/11/07 05:55:16;;;;;;;8.50;2.10;;;;;;;;;;5058168;28;20045;-60
2021/11/07 05:57:43;;;;;;;9.38;1.65;;;;;;;;;;5062150;28;20282;-58
2021/11/07 06:00:11;;;;;;;6.57;1.38;;;;;;;;;;5060634;28;20056;-58
2021/11/07 06:02:42;;;;;;;10.23;1.58;;;;;;;;;;5061782;28;20037;-58
2021/11/07 06:05:09;;;;;;;11.35;1.65;;;;;;;;;;5054789;28;20099;-60
2021/11/07 06:07:35;;;;;;;15.10;1.40;;;;;;;;;;5042358;28;20037;-57
2021/11/07 06:10:02;;;;;;;16.65;1.85;;;;;;;;;;5048850;28;20052;-58
2021/11/07 06:12:31;;;;;;;14.25;1.77;;;;;;;;;;5060026;28;20037;-58
2021/11/07 06:14:57;;;;;;;11.32;1.70;;;;;;;;;;5046924;28;20036;-59
2021/11/07 06:17:24;;;;;;;10.30;1.55;;;;;;;;;;5063155;28;20033;-59
2021/11/07 06:19:52;;;;;;;15.25;1.75;;;;;;;;;;5059134;28;20045;-59
2021/11/07 06:22:21;;;;;;;8.25;1.77;;;;;;;;;;5060216;28;20033;-56
2021/11/07 06:24:47;;;;;;;18.77;1.75;;;;;;;;;;5056944;28;20129;-57
2021/11/07 06:27:14;;;;;;;13.48;1.60;;;;;;;;;;5061916;28;20044;-57
2021/11/07 06:29:42;;;;;;;7.55;1.30;;;;;;;;;;5058547;28;20029;-57
2021/11/07 06:32:10;;;;;;;8.90;2.05;;;;;;;;;;5059346;28;20045;-57
2021/11/07 06:34:38;;;;;;;10.88;1.15;;;;;;;;;;5062251;28;20044;-57
2021/11/07 06:37:06;;;;;;;14.65;2.33;;;;;;;;;;5057413;28;20342;-58
2021/11/07 06:39:33;;;;;;;8.13;1.63;;;;;;;;;;5060591;28;20542;-57
2021/11/07 06:42:00;;;;;;;14.10;2.13;;;;;;;;;;5059649;28;20061;-57
2021/11/07 06:44:27;;;;;;;16.50;1.73;;;;;;;;;;5060141;28;20053;-58
2021/11/07 06:46:53;;;;;;;8.05;1.50;;;;;;;;;;5057419;28;20049;-57
2021/11/07 06:49:20;;;;;;;15.68;2.22;;;;;;;;;;5062623;28;20130;-58
2021/11/07 06:51:47;;;;;;;8.35;1.45;;;;;;;;;;5058453;28;20061;-56
2021/11/07 06:54:15;;;;;;;13.75;1.85;;;;;;;;;;5062426;28;20037;-58
2021/11/07 06:56:42;;;;;;;12.30;1.80;;;;;;;;;;5059808;28;20044;-57
2021/11/07 06:59:08;;;;;;;13.63;1.60;;;;;;;;;;5061102;28;20065;-57
2021/11/07 07:01:36;;;;;;;14.82;1.40;;;;;;;;;;5057640;28;20118;-57
2021/11/07 07:04:02;;;;;;;12.18;2.10;;;;;;;;;;5059801;28;20049;-57
2021/11/07 07:06:29;;;;;;;14.43;1.88;;;;;;;;;;5059500;28;20040;-58
2021/11/07 07:08:58;;;;;;;10.95;1.73;;;;;;;;;;5078619;28;20072;-59
2021/11/07 07:11:30;;;;;;;17.65;1.50;;;;;;;;;;5074889;28;20093;-57
2021/11/07 07:14:00;;;;;;;13.50;1.83;;;;;;;;;;5061566;28;20048;-59
2021/11/07 07:16:38;;;;;;;12.48;1.55;;;;;;;;;;5057609;28;20114;-58
2021/11/07 07:19:20;;;;;;;12.38;2.05;;;;;;;;;;5061419;28;20070;-58
2021/11/07 07:21:57;;;;;;;13.75;1.73;;;;;;;;;;5057301;28;20041;-58
2021/11/07 07:30:12;;;;;;;12.95;1.92;;;;;;;;;;5063000;28;20109;-58
2021/11/07 07:33:00;;;;;;;9.38;1.80;;;;;;;;;;5056225;28;20125;-57
2021/11/07 07:35:27;;;;;;;;;;;;;;;;;;5062073;28;20051;-57
2021/11/07 07:37:54;;;;;;;11.23;1.50;;;;;;;;;;5056605;28;19924;-57
2021/11/07 07:40:21;;;;;;;12.30;1.70;;;;;;;;;;5061547;28;20052;-57
2021/11/07 07:42:51;;;;;;;14.63;1.60;;;;;;;;;;5058431;28;20060;-58
2021/11/07 07:45:17;;;;;;;11.65;1.20;;;;;;;;;;5059897;28;20033;-57
2021/11/07 07:47:44;;;;;;;15.00;1.65;;;;;;;;;;5056922;28;20033;-57
2021/11/07 07:50:11;;;;;;;18.27;1.80;;;;;;;;;;5060441;28;20053;-57
2021/11/07 07:52:38;;;;;;;17.02;1.67;;;;;;;;;;5063226;28;20032;-57
2021/11/07 07:55:05;;;;;;;18.17;1.77;;;;;;;;;;5056701;28;20045;-56
2021/11/07 07:57:32;;;;;;;11.35;1.67;;;;;;;;;;5059538;28;20048;-57
2021/11/07 08:00:00;;;;;;;16.70;2.05;;;;;;;;;;5056942;28;20138;-57
2021/11/07 08:02:26;;;;;;;11.50;1.60;;;;;;;;;;5060293;28;20408;-57
2021/11/07 08:04:53;;;;;;;18.08;1.75;;;;;;;;;;5055036;28;20056;-57
2021/11/07 08:07:19;;;;;;;15.18;2.13;;;;;;;;;;5061242;28;20045;-57
2021/11/07 08:09:46;;;;;;;10.00;1.23;;;;;;;;;;5052788;28;20037;-57
2021/11/07 08:12:13;;;;;;;14.88;1.58;;;;;;;;;;5050141;28;20037;-56
2021/11/07 08:14:41;;;;;;;13.30;2.00;;;;;;;;;;5056401;28;20044;-58
2021/11/07 08:17:09;;;;;;;15.80;1.77;;;;;;;;;;5060560;28;20049;-57
2021/11/07 08:19:35;;;;;;;11.47;1.80;;;;;;;;;;5069980;28;20052;-57
2021/11/07 08:22:02;;;;;;;12.27;2.83;;;;;;;;;;5062243;28;20048;-57
2021/11/07 08:24:29;;;;;;;11.40;1.52;;;;;;;;;;5060180;28;20060;-58
2021/11/07 08:26:56;;;;;;;9.35;1.58;;;;;;;;;;5063707;28;20037;-58
2021/11/07 08:29:22;;;;;;;24.85;3.80;;;;;;;;;;5060696;28;20041;-57
2021/11/07 08:31:51;;;;;;;16.48;3.72;;;;;;;;;;5064134;28;20033;-58
2021/11/07 08:34:23;;;;;;;13.13;1.85;;;;;;;;;;5058557;28;20044;-57
2021/11/07 08:36:55;;;;;;;17.80;2.35;;;;;;;;;;5059238;28;20063;-57
2021/11/07 08:39:24;;;;;;;17.73;2.33;;;;;;;;;;5047573;28;20053;-57
2021/11/07 08:41:57;;;;;;;17.55;1.95;;;;;;;;;;5059906;28;20057;-57
2021/11/07 09:00:53;;;;;;;24.77;2.72;;;;;;;;;;5058299;28;20049;-59
2021/11/07 09:03:28;;;;;;;14.30;2.05;;;;;;;;;;5061319;28;20052;-57
2021/11/07 09:06:22;;;;;;;14.45;2.97;;;;;;;;;;5059196;28;20049;-58
2021/11/07 09:08:49;;;;;;;17.90;1.85;;;;;;;;;;5065199;28;20073;-58
2021/11/07 09:11:16;;;;;;;16.17;1.90;;;;;;;;;;5058091;28;20045;-57
2021/11/07 09:13:43;;;;;;;15.43;1.98;;;;;;;;;;5063871;28;20049;-58
2021/11/07 09:16:12;;;;;;;13.90;2.80;;;;;;;;;;5057930;28;20046;-60
2021/11/07 09:18:38;;;;;;;;;;;;;;;;;;5062930;28;20029;-60
2021/11/07 09:21:09;;;;;;;16.45;2.20;;;;;;;;;;5060893;28;19931;-60
2021/11/07 09:23:41;;;;;;;19.25;2.55;;;;;;;;;;5059918;28;20048;-57
2021/11/07 09:28:51;;;;;;;14.88;1.98;;;;;;;;;;5069478;28;20037;-57
2021/11/07 09:31:27;;;;;;;11.45;1.60;;;;;;;;;;5042349;28;20044;-57
2021/11/07 09:34:05;;;;;;;22.02;2.15;;;;;;;;;;5055733;28;20095;-57
2021/11/07 09:36:36;;;;;;;14.93;1.90;;;;;;;;;;5064031;28;20040;-57
2021/11/07 09:39:16;;;;;;;17.15;1.92;;;;;;;;;;5056270;28;20052;-59
2021/11/07 09:41:55;;;;;;;11.15;1.58;;;;;;;;;;5043805;28;20093;-59
2021/11/07 09:44:24;;;;;;;12.93;1.90;;;;;;;;;;5058477;28;20037;-57
2021/11/07 09:46:53;;;;;;;21.13;2.25;;;;;;;;;;5062906;28;20049;-58
2021/11/07 09:49:23;;;;;;;20.50;2.72;;;;;;;;;;5055443;28;20060;-58
2021/11/07 09:51:56;;;;;;;12.20;1.77;;;;;;;;;;5044582;28;20069;-59
2021/11/07 09:54:24;;;;;;;15.82;2.33;;;;;;;;;;5053267;28;20040;-59
2021/11/07 09:56:52;;;;;;;17.63;2.17;;;;;;;;;;5063192;28;20057;-57
2021/11/07 09:59:19;;;;;;;12.10;1.75;;;;;;;;;;5058801;28;20059;-57
2021/11/07 10:01:46;;;;;;;11.38;2.00;;;;;;;;;;5062068;28;20047;-58
2021/11/07 10:04:13;;;;;;;11.77;1.75;;;;;;;;;;5057453;28;20033;-58
2021/11/07 10:06:44;;;;;;;19.33;1.70;;;;;;;;;;5062413;28;20081;-58
2021/11/07 10:09:13;;;;;;;13.95;2.17;;;;;;;;;;5058838;28;20052;-57
2021/11/07 10:11:42;;;;;;;;;;;;;;;;;;5062654;28;20109;-57
2021/11/07 10:14:14;;;;;;;19.00;1.90;;;;;;;;;;5057387;28;19931;-59
2021/11/07 10:16:43;;;;;;;13.05;1.50;;;;;;;;;;5061184;28;20047;-58
2021/11/07 10:19:14;;;;;;;11.20;2.15;;;;;;;;;;5060260;28;20112;-59
2021/11/07 10:21:45;;;;;;;20.35;3.33;;;;;;;;;;5063062;28;20151;-57
2021/11/07 10:24:16;;;;;;;18.95;3.25;;;;;;;;;;5062787;28;20040;-59
2021/11/07 10:26:45;;;;;;;9.88;1.58;;;;;;;;;;5079118;28;20044;-58
2021/11/07 10:29:21;;;;;;;17.67;2.10;;;;;;;;;;5058248;28;20134;-58
2021/11/07 10:31:54;;;;;;;18.35;2.10;;;;;;;;;;5051662;28;20041;-58
2021/11/07 10:34:33;;;;;;;10.85;1.88;;;;;;;;;;5057614;28;21002;-58
2021/11/07 10:40:15;;;;;;;9.82;1.80;;;;;;;;;;5058923;28;19913;-58
2021/11/07 10:43:01;;;;;;;13.60;1.52;;;;;;;;;;5060101;28;20029;-57
2021/11/07 10:45:29;;;;;;;13.88;2.63;;;;;;;;;;5052722;28;20045;-58
2021/11/07 10:53:29;;;;;;;16.17;2.03;;;;;;;;;;5061249;28;20056;-58
2021/11/07 10:56:01;;;;;;;18.20;2.45;;;;;;;;;;5054910;28;20041;-57
2021/11/07 10:58:28;;;;;;;16.80;1.85;;;;;;;;;;5041392;28;20057;-58
2021/11/07 11:00:56;;;;;;;14.23;2.00;;;;;;;;;;5045450;28;20053;-57
2021/11/07 11:03:23;;;;;;;18.20;2.10;;;;;;;;;;5062442;28;20056;-59
2021/11/07 11:05:52;;;;;;;13.50;2.72;;;;;;;;;;5056694;28;20040;-60
2021/11/07 11:08:21;;;;;;;;;;;;;;;;;;5061326;28;20059;-58
2021/11/07 11:10:57;;;;;;;14.52;2.63;;;;;;;;;;5056798;28;21213;-58
2021/11/07 11:13:31;;;;;;;14.60;2.10;;;;;;;;;;5066765;28;20052;-57
2021/11/07 11:19:06;;;;;;;16.95;1.58;;;;;;;;;;5061211;28;20029;-59
2021/11/07 11:24:33;;;;;;;13.90;1.98;;;;;;;;;;5052350;28;20126;-59
2021/11/07 11:27:14;;;;;;;17.65;1.88;;;;;;;;;;5050995;28;20033;-58
2021/11/07 11:29:53;;;;;;;16.63;1.90;;;;;;;;;;5039672;28;20171;-58
2021/11/07 11:32:29;;;;;;;14.10;2.35;;;;;;;;;;5047857;28;20063;-58
2021/11/07 11:35:01;;;;;;;15.05;1.65;;;;;;;;;;5061274;28;20036;-58
2021/11/07 11:37:33;;;;;;;14.23;1.50;;;;;;;;;;5057502;28;20048;-57
2021/11/07 11:40:04;;;;;;;10.65;1.50;;;;;;;;;;5060931;28;20110;-57
2021/11/07 11:42:37;;;;;;;12.77;2.13;;;;;;;;;;5056720;28;20040;-60
2021/11/07 11:45:06;;;;;;;13.65;1.80;;;;;;;;;;5059669;28;20095;-57
2021/11/07 11:47:44;;;;;;;14.27;2.28;;;;;;;;;;5072941;28;20041;-58
2021/11/07 11:50:26;;;;;;;14.35;1.58;;;;;;;;;;5061123;28;20048;-59
2021/11/07 11:53:01;;;;;;;10.98;1.50;;;;;;;;;;5055366;28;20044;-58
2021/11/07 11:55:36;;;;;;;13.60;1.83;;;;;;;;;;5044994;28;20045;-57
2021/11/07 12:00:51;;;;;;;9.55;1.50;;;;;;;;;;5075804;28;20048;-59
2021/11/07 12:03:33;;;;;;;13.75;1.90;;;;;;;;;;5058198;28;20044;-57
2021/11/07 12:06:03;;;;;;;13.20;1.80;;;;;;;;;;5062135;28;20040;-60
2021/11/07 12:08:35;;;;;;;11.32;1.13;;;;;;;;;;5059685;28;20069;-57
2021/11/07 12:11:14;;;;;;;8.88;1.50;;;;;;;;;;5063054;28;20068;-59
2021/11/07 12:13:44;;;;;;;;;;;;;;;;;;5063362;28;20037;-58
2021/11/07 12:16:16;;;;;;;9.35;1.27;;;;;;;;;;5061683;28;19920;-58
2021/11/07 12:19:03;;;;;;;19.13;2.38;;;;;;;;;;5074215;28;20051;-57
2021/11/07 12:21:50;;;;;;;13.45;2.00;;;;;;;;;;5062895;28;20040;-58
2021/11/07 12:24:17;;;;;;;11.65;1.45;;;;;;;;;;5061874;28;20033;-57
2021/11/07 12:26:45;;;;;;;18.02;4.18;;;;;;;;;;5061928;28;20447;-58
2021/11/07 12:29:12;;;;;;;24.47;3.57;;;;;;;;;;5060377;28;20044;-58
2021/11/07 12:31:54;;;;;;;17.30;2.00;;;;;;;;;;5062861;28;20032;-58
2021/11/07 12:34:24;;;;;;;11.80;1.52;;;;;;;;;;5060166;28;20138;-59
2021/11/07 12:42:35;;;;;;;10.90;1.45;;;;;;;;;;5061641;28;20032;-58
2021/11/07 12:45:17;;;;;;;26.25;2.30;;;;;;;;;;5058501;28;20514;-58
2021/11/07 12:47:48;;;;;;;17.65;2.10;;;;;;;;;;5063284;28;20048;-57
2021/11/07 12:50:17;;;;;;;11.05;1.48;;;;;;;;;;5060566;28;20044;-57
2021/11/07 12:52:44;;;;;;;;;;;;;;;;;;5063964;28;20054;-57
2021/11/07 12:55:26;;;;;;;21.60;2.58;;;;;;;;;;5059462;28;19917;-62
2021/11/07 12:57:52;;;;;;;17.35;2.22;;;;;;;;;;5062639;28;20051;-58
2021/11/07 13:00:19;;;;;;;15.13;2.42;;;;;;;;;;5059618;28;20040;-58
2021/11/07 13:02:46;;;;;;;15.90;1.95;;;;;;;;;;5063134;28;20049;-58
2021/11/07 13:05:16;;;;;;;13.70;1.70;;;;;;;;;;5060056;28;20156;-58
2021/11/07 13:07:49;;;;;;;8.45;1.15;;;;;;;;;;5062240;28;20056;-59
2021/11/07 13:10:21;;;;;;;15.27;1.98;;;;;;;;;;5061887;28;20044;-58
2021/11/07 13:12:51;;;;;;;10.52;1.73;;;;;;;;;;5062623;28;20568;-58
2021/11/07 13:15:37;;;;;;;13.65;1.58;;;;;;;;;;5061166;28;20037;-59
2021/11/07 13:18:26;;;;;;;22.25;2.13;;;;;;;;;;5048046;28;20089;-58
2021/11/07 13:23:48;;;;;;;11.20;1.90;;;;;;;;;;5066532;28;20045;-59
2021/11/07 13:26:30;;;;;;;16.73;2.53;;;;;;;;;;5043939;28;20056;-58
2021/11/07 13:29:09;;;;;;;25.63;2.88;;;;;;;;;;5063948;28;20045;-58
2021/11/07 13:31:48;;;;;;;20.08;2.53;;;;;;;;;;5057644;28;20040;-59
2021/11/07 13:34:18;;;;;;;18.10;2.45;;;;;;;;;;5062245;28;20053;-59
2021/11/07 13:36:45;;;;;;;15.27;1.63;;;;;;;;;;5060689;28;20081;-57
2021/11/07 13:39:21;;;;;;;27.92;2.38;;;;;;;;;;5062885;28;20113;-58
2021/11/07 13:41:51;;;;;;;16.00;2.60;;;;;;;;;;5059333;28;20048;-58
2021/11/07 13:44:22;;;;;;;15.15;1.95;;;;;;;;;;5063712;28;20120;-58
2021/11/07 13:46:50;;;;;;;20.77;2.33;;;;;;;;;;5057364;28;20048;-58
2021/11/07 13:49:20;;;;;;;15.02;1.77;;;;;;;;;;5062861;28;20048;-58
2021/11/07 13:51:52;;;;;;;19.35;1.88;;;;;;;;;;5058206;28;20041;-58
2021/11/07 13:54:20;;;;;;;20.20;2.10;;;;;;;;;;5054722;28;20033;-58
2021/11/07 13:56:48;;;;;;;17.23;2.65;;;;;;;;;;5054674;28;20032;-58
2021/11/07 13:59:27;;;;;;;11.38;1.90;;;;;;;;;;5056972;28;20053;-58
2021/11/07 14:01:53;;;;;;;16.13;2.35;;;;;;;;;;5063203;28;20131;-58
2021/11/07 14:04:20;;;;;;;13.70;2.00;;;;;;;;;;5060273;28;20117;-58
2021/11/07 14:06:47;;;;;;;13.10;2.25;;;;;;;;;;5083441;28;20047;-58
2021/11/07 14:09:14;;;;;;;17.40;2.00;;;;;;;;;;5060931;28;20136;-58
2021/11/07 14:11:43;;;;;;;15.07;1.73;;;;;;;;;;5061724;28;20178;-58
2021/11/07 14:14:12;;;;;;;11.07;1.65;;;;;;;;;;5073863;28;20040;-58
2021/11/07 14:16:44;;;;;;;20.15;2.08;;;;;;;;;;5065468;28;20323;-58
2021/11/07 14:19:12;;;;;;;25.02;2.20;;;;;;;;;;5080292;28;20044;-58
2021/11/07 14:21:41;;;;;;;17.63;2.25;;;;;;;;;;5064882;28;20044;-58
2021/11/07 14:24:13;;;;;;;14.90;2.40;;;;;;;;;;5071446;28;20071;-58
2021/11/07 14:26:47;;;;;;;18.80;2.03;;;;;;;;;;5064644;28;20051;-58
2021/11/07 14:29:19;;;;;;;15.82;2.13;;;;;;;;;;5060918;28;20032;-57
2021/11/07 14:31:52;;;;;;;10.35;1.98;;;;;;;;;;5064527;28;20055;-60
2021/11/07 14:34:22;;;;;;;18.88;2.47;;;;;;;;;;5061351;28;20044;-59
2021/11/07 14:36:59;;;;;;;11.48;1.35;;;;;;;;;;5064937;28;20028;-58
2021/11/07 14:42:29;;;;;;;10.73;1.50;;;;;;;;;;5039665;28;20051;-58
2021/11/07 14:48:15;;;;;;;13.85;3.00;;;;;;;;;;5061048;28;20052;-58
2021/11/07 14:50:55;;;;;;;16.55;2.10;;;;;;;;;;5068106;28;20048;-58
2021/11/07 14:53:25;;;;;;;13.38;2.30;;;;;;;;;;5066526;28;20036;-58
2021/11/07 14:55:56;;;;;;;14.75;2.40;;;;;;;;;;5058781;28;20581;-58
2021/11/07 14:58:31;;;;;;;14.60;2.35;;;;;;;;;;5044465;28;20061;-58
2021/11/07 15:01:21;;;;;;;11.93;2.53;;;;;;;;;;5055548;28;20111;-57
2021/11/07 15:03:49;;;;;;;13.35;2.00;;;;;;;;;;5060246;28;20040;-57
2021/11/07 15:06:29;;;;;;;10.45;1.60;;;;;;;;;;5059332;28;20048;-58
2021/11/07 15:08:59;;;;;;;12.77;1.88;;;;;;;;;;5060781;28;20036;-57
2021/11/07 15:14:21;;;;;;;8.20;1.58;;;;;;;;;;5055996;28;20058;-58
2021/11/07 15:16:52;;;;;;;11.07;1.75;;;;;;;;;;5055457;28;20032;-57
2021/11/07 15:19:26;;;;;;;13.60;1.98;;;;;;;;;;5077281;28;20054;-58
2021/11/07 15:21:57;;;;;;;15.10;1.98;;;;;;;;;;5058804;28;20051;-58
2021/11/07 15:24:27;;;;;;;15.05;1.95;;;;;;;;;;5060561;28;20041;-58
2021/11/07 15:26:57;;;;;;;14.18;1.67;;;;;;;;;;5077039;28;20058;-57
2021/11/07 15:29:24;;;;;;;10.10;1.40;;;;;;;;;;5060720;28;20051;-57
2021/11/07 15:32:01;;;;;;;11.93;2.15;;;;;;;;;;5056895;28;20044;-57
2021/11/07 15:34:30;;;;;;;11.20;2.75;;;;;;;;;;5058844;28;20036;-57
2021/11/07 15:36:57;;;;;;;9.48;1.38;;;;;;;;;;5070964;28;20046;-58
2021/11/07 15:39:26;;;;;;;9.77;1.67;;;;;;;;;;5059290;28;20104;-58
2021/11/07 15:42:07;;;;;;;6.15;1.27;;;;;;;;;;5057943;28;20055;-58
2021/11/07 15:44:34;;;;;;;11.10;1.55;;;;;;;;;;5059355;28;20076;-58
2021/11/07 15:47:03;;;;;;;10.38;2.00;;;;;;;;;;5076163;28;20063;-58
2021/11/07 15:49:34;;;;;;;14.63;2.20;;;;;;;;;;5058204;28;20088;-57
2021/11/07 15:52:05;;;;;;;9.20;2.20;;;;;;;;;;5074555;28;20057;-57
2021/11/07 15:54:35;;;;;;;11.05;2.20;;;;;;;;;;5061551;28;20036;-58
2021/11/07 15:57:10;;;;;;;9.07;1.98;;;;;;;;;;5055283;28;20136;-58